• Join FlightAware (Why Join?)
  • Login
  • US Flag 
06:53AM EDT


 

Airport Tracker/Info


-or-


 

Live Flight TrackerFlight Track Log ✈ OPT438 ✈ 25-Feb-2014 ✈ KMDT - KCMH

Flight Track Log - Related Links

Times and Time Zones

All times are in EST time to prevent confusion due to time zone crossing. See the OPT438 flight status page for this flight to view local times or setup timezone preferences in your user account.

Time Position Orientation Groundspeed Altitude Reporting Facility
EST Latitude Longitude Course Direction KTS MPH feet Rate Location/Type
04:34PM 40.2036 -76.9567 255° West 242 278 8,100  Level New York Center
04:35PM 40.1850 -77.0339 253° West 259 298 10,700 3,180 Climbing New York Center
04:36PM 40.1589 -77.1294 250° West 259 298 14,500 3,300 Climbing New York Center
04:38PM 40.1364 -77.2606 257° West 261 300 19,400 3,000 Climbing Cleveland Center
04:39PM 40.1331 -77.3694 268° West 253 291 22,500 2,820 Climbing Cleveland Center
04:40PM 40.1319 -77.4603 269° West 253 291 25,300 1,800 Climbing Cleveland Center
04:41PM 40.1294 -77.5486 268° West 250 288 26,300 1,980 Climbing Cleveland Center
04:42PM 40.1275 -77.6436 268° West 256 295 29,400 2,820 Climbing Cleveland Center
04:43PM 40.1253 -77.7233 268° West 237 273 32,200 1,980 Climbing Cleveland Center
04:44PM 40.1242 -77.8150 269° West 218 251 33,500 900 Climbing Cleveland Center
04:45PM 40.1222 -77.9036 268° West 229 264 34,100 480 Climbing Cleveland Center
04:46PM 40.1192 -78.0100 268° West 261 300 34,600 480 Climbing Cleveland Center
04:47PM 40.1169 -78.1164 268° West 281 323 35,100 480 Climbing Cleveland Center
04:48PM 40.1133 -78.2272 268° West 296 341 35,600 420 Climbing Cleveland Center
04:49PM 40.1103 -78.3425 268° West 309 356 36,000 180 Climbing Cleveland Center
04:50PM 40.1072 -78.4594 268° West 317 365 36,000  Level Cleveland Center
04:51PM 40.1042 -78.5794 268° West 323 372 36,000  Level Cleveland Center
04:52PM 40.0994 -78.7200 268° West 326 375 36,000  Level Cleveland Center
04:53PM 40.0958 -78.8372 268° West 326 375 36,000  Level Cleveland Center
04:54PM 40.0922 -78.9564 268° West 326 375 36,000 -180 Level Cleveland Center
04:55PM 40.0886 -79.0725 268° West 326 375 35,700 -420 Descending Cleveland Center
04:56PM 40.0833 -79.1914 267° West 326 375 35,200 -360 Descending Cleveland Center
04:57PM 40.0794 -79.3297 268° West 323 372 35,000 -120 Descending Cleveland Center
04:59PM 40.0747 -79.4422 267° West 317 365 35,000 -120 Level Cleveland Center
05:00PM 40.0708 -79.5517 267° West 307 353 34,800 -420 Descending Cleveland Center
05:01PM 40.0669 -79.6592 267° West 301 346 34,200 -660 Descending Cleveland Center
05:02PM 40.0636 -79.7625 268° West 289 333 33,500 -720 Descending Cleveland Center
05:03PM 40.0589 -79.8664 267° West 286 329 32,800 -720 Descending Cleveland Center
05:04PM 40.0547 -79.9708 267° West 286 329 32,100 -780 Descending Cleveland Center
05:05PM 40.0494 -80.0978 267° West 289 333 31,200 -780 Descending Cleveland Center
05:06PM 40.0450 -80.2039 267° West 289 333 30,500 -780 Descending Cleveland Center
05:07PM 40.0408 -80.3061 267° West 287 330 29,700 -780 Descending Cleveland Center
05:08PM 40.0353 -80.4089 266° West 285 328 29,000 -720 Descending Cleveland Center
05:09PM 40.0300 -80.5119 266° West 284 327 28,300 -780 Descending Cleveland Center
05:10PM 40.0258 -80.6181 267° West 289 333 27,400 -1,440 Descending Cleveland Center
05:11PM 40.0208 -80.7372 267° West 278 320 25,400 -1,800 Descending Cleveland Center
05:12PM 40.0131 -80.8361 264° West 274 315 23,800 -1,200 Descending Cleveland Center
05:13PM 39.9969 -80.9169 255° West 274 315 23,000 -900 Descending Indianapolis Center
05:14PM 39.9783 -81.0150 256° West 275 316 22,000 -540 Descending Indianapolis Center
05:15PM 39.9569 -81.1286 256° West 275 316 22,000  Level Indianapolis Center
05:16PM 39.9372 -81.2250 255° West 275 316 22,000  Level Indianapolis Center
05:17PM 39.9181 -81.3214 255° West 275 316 22,000  Level Indianapolis Center
05:18PM 39.9003 -81.4153 256° West 273 314 22,000 -540 Level Indianapolis Center
05:19PM 39.8794 -81.5189 255° West 272 313 21,000 -1,380 Descending Indianapolis Center
05:20PM 39.8614 -81.6147 256° West 273 314 19,200 -1,680 Descending Indianapolis Center
05:21PM 39.8411 -81.7119 255° West 274 315 17,600 -1,680 Descending Indianapolis Center
05:22PM 39.8217 -81.8097 256° West 275 316 15,800 -1,740 Descending Indianapolis Center
05:23PM 39.8019 -81.9092 256° West 280 322 14,100 -1,800 Descending Indianapolis Center
05:24PM 39.7853 -81.9911 255° West 284 327 12,800 -2,040 Descending Indianapolis Center
05:24PM 39.7783 -82.0286 256° West 282 325 12,000 -1,800 Descending Indianapolis Center
05:25PM 39.7669 -82.0808 254° West 281 323 11,200 -1,680 Descending Indianapolis Center
05:25PM 39.7581 -82.1250 255° West 282 325 10,300 -1,380 Descending Indianapolis Center
05:26PM 39.7481 -82.1758 256° West 276 318 9,800 -1,020 Descending Indianapolis Center
05:26PM 39.7394 -82.2156 254° West 269 310 9,300 -1,020 Descending Indianapolis Center
05:27PM 39.7300 -82.2603 255° West 238 274 8,800 -1,080 Descending Indianapolis Center
05:27PM 39.7222 -82.3000 256° West 247 284 8,200 -1,200 Descending Indianapolis Center
05:28PM 39.7183 -82.3208 256° West 242 278 8,000 -1,200 Descending Indianapolis Center
05:28PM 39.7533 -82.3669 315° West 249 287 7,000 -1,200 Descending Indianapolis Center
05:28PM 39.7597 -82.3733 322° Northwest 232 267 6,900 -1,380 Descending Indianapolis Center
05:29PM 39.8125 -82.4167 328° Northwest 220 253 5,600 -1,200 Descending Indianapolis Center
05:30PM 39.8733 -82.4642 329° Northwest 239 275 4,500 -1,200 Descending Indianapolis Center
05:31PM 39.8728 -82.4631 123° Southeast 236 272 4,400 -600 Descending Indianapolis Center
05:32PM 39.9281 -82.5078 328° Northwest 237 273 3,900 -240 Descending Indianapolis Center
05:32PM 39.9428 -82.5322 308° West 214 246 4,100 60 Climbing Indianapolis Center
05:33PM 39.9628 -82.5653 308° West 186 214 4,000 -300 Descending Indianapolis Center
05:33PM 39.9617 -82.5633 127° Southeast 214 246 3,900 -720 Descending Indianapolis Center
05:34PM 39.9781 -82.6275 288° West 170 196 3,300 -600 Descending Indianapolis Center
05:34PM 39.9778 -82.6239 96° East 197 227 3,300 -180 Level Indianapolis Center
05:35PM 39.9819 -82.6992 274° West 159 183 3,100 -300 Descending Indianapolis Center
05:36PM 39.9853 -82.7544 275° West 165 190 2,800 -480 Descending Indianapolis Center
05:36PM 39.9847 -82.7544 180° South 170 196 2,700 -900 Descending Indianapolis Center
05:37PM 39.9878 -82.8008 275° West 150 173 1,900 -660 Descending Indianapolis Center
05:37PM 39.9869 -82.8036 249° West 124 143 2,000 -540 Climbing Indianapolis Center
05:38PM 39.9900 -82.8442 276° West 130 150 1,400 -660 Descending Indianapolis Center
05:38PM 39.9906 -82.8536 274° West 104 120 1,200 -240 Descending Indianapolis Center
05:39PM 39.9919 -82.8803 274° West 126 145 1,200  Level Indianapolis Center
05:41PM 39.9833 -82.8833 270° West  Level FlightAware Approximate